Terminal Aerodrome Forecast
Issued by NWS

Home | Current Version | Previous Version | Text Only | Print | Product List | Glossary On
Versions: 1 2 3 4 5 6 7 8 9 10 11 12 13 14 15 16 17 18 19 20 21 22 23 24
124
FTUS44 KLIX 231208 AAA
TAFMCB
TAF AMD
KMCB 231208Z 2312/2412 00000KT 1SM -RA BR VCSH SCT005 BKN009 OVC015
     FM231500 32006KT P6SM VCSH OVC010
     FM231900 32006KT P6SM VCSH OVC035
     FM240200 32003KT P6SM OVC040=

USA.gov is the U.S. government's official web portal to all federal, state and local government web resources and services.